Impacts METAR Board
IDs:

KGYB - Giddings/Lee Cnty, TX, US

Updated at: 0900 UTC 26 May 2019
Potential Impact None Slight Moderate High
Time 25/21Z 25/22Z 25/23Z 26/00Z 26/01Z 26/02Z 26/03Z 26/04Z 26/05Z 26/06Z 26/07Z 26/08Z 26/09Z
Temp90 92 91 89 87 83 81 80 79 78 77 77 76
Dewpt71 69 71 71 71 70 70 72 73 74 74 74 74
Altim30.01 29.99 29.99 29.99 30.00 30.00 30.02 30.03 30.02 30.03 30.03 30.03 30.03
VIS10 10 10 10 10 10 10 10 10 10 10 10 7
CIG-- -- -- -- -- -- -- -- -- 12 12 12 8
CoverSCTCLRSCTCLRCLRCLRCLRCLRCLRBKNBKNBKNBKN
FltCatVFRVFRVFRVFRVFRVFRVFRVFRVFRMVFRMVFRMVFRIFR
WX--------------------------
WDir160140150150160160170170160180170160160
WSpd10 7 11 10 5 6 3 5 7 4 3 5 4
WGst14 16 18 15 -- -- -- -- -- -- -- -- --
Raw hourly METARs
KGYB 252055Z AUTO 16010G14KT 10SM SCT048 SCT060 32/22 A3001 RMK AO2 T03230216
KGYB 252155Z AUTO 14007G16KT 10SM CLR 33/21 A2999 RMK AO2 T03310205
KGYB 252255Z AUTO 15011G18KT 10SM SCT044 SCT050 33/22 A2999 RMK AO2 T03290218
KGYB 252355Z AUTO 15010G15KT 10SM CLR 31/22 A2999 RMK AO2 T03140215 10337 20311
KGYB 260055Z AUTO 16005KT 10SM CLR 30/21 A3000 RMK AO2 T03030214
KGYB 260155Z AUTO 16006KT 10SM CLR 29/21 A3000 RMK AO2 T02850211
KGYB 260255Z AUTO 17003KT 10SM CLR 27/21 A3002 RMK AO2 T02710213
KGYB 260355Z AUTO 17005KT 10SM CLR 27/22 A3003 RMK AO2 T02670220
KGYB 260455Z AUTO 16007KT 10SM CLR 26/23 A3002 RMK AO2 T02600225
KGYB 260555Z AUTO 18004KT 10SM BKN012 26/23 A3003 RMK AO2 T02550233 10315 20255 403370243
KGYB 260655Z AUTO 17003KT 10SM BKN012 BKN017 BKN023 25/24 A3003 RMK AO2 T02520236
KGYB 260755Z AUTO 16005KT 10SM BKN012 BKN019 25/24 A3003 RMK AO2 T02500236
KGYB 260855Z AUTO 16004KT 7SM BKN008 BKN017 25/24 A3003 RMK AO2 T02460236